Arctic - Eastern Arctic: Past 24 Hour Conditions

 

Coral Harbour Airport

05:00 PM EST 17 April 2014
This table is a summary of hourly weather conditions for the past 24 hours.
Date / Time
(EST)
Wind(knots) Conditions Visibility(km) Pressure(kPa) Air tempC) Relative humidity(%) Dew pointC) Wind Chill
17 April 2014
17:00 NNW 17 gust 23 Drifting Snow 19 101.2 -16 66 -21 -27
16:00 NNW 20 Sunny 24 101.1 -15 65 -20 -27
15:00 NNW 15 Sunny 24 101.0 -14 61 -20 -25
14:00 NNW 13 Sunny 24 100.9 -14 61 -20 -24
13:00 N 8 Sunny 24 100.8 -15 58 -22 -23
12:00 N 8 Sunny 24 100.7 -16 59 -22 -24
11:00 N 8 Sunny 24 100.6 -17 62 -22 -25
10:00 NNW 12 Sunny 24 100.5 -18 70 -22 -29
9:00 NNW 14 Sunny 24 100.4 -20 65 -25 -32
8:00 NNW 7 Sunny 24 100.4 -23 67 -27 -32
7:00 N 14 Mainly Sunny 24 100.3 -23 68 -27 -36
6:00 N 13 Mainly Sunny 24 100.2 -24 68 -28 -36
5:00 N 12 Mainly Sunny 24 100.2 -22 71 -26 -34
4:00 N 10 Mainly Clear 24 100.2 -21 72 -25 -31
3:00 NNW 10 Mainly Clear 24 100.2 -21 73 -24 -31
2:00 NNW 6 Mainly Clear 24 100.2 -21 74 -24 -29
1:00 N 7 Mainly Clear 24 100.2 -20 75 -24 -29
0:00 NW 11 Mainly Clear 24 100.3 -20 75 -23 -30
16 April 2014
23:00 NW 8 Partly Cloudy 24 100.3 -19 75 -22 -28
22:00 W 7 Partly Cloudy 24 100.4 -19 74 -22 -27
21:00 WNW 5 Mostly Cloudy 24 100.5 -17 74 -21 -24
20:00 N 10 Partly Cloudy 24 100.5 -18 71 -22 -27
19:00 NNW 10 Mainly Sunny 24 100.6 -17 71 -21 -26
18:00 NW 12 Partly Cloudy 24 100.7 -15 70 -19 -24
17:00 NW 9 Mainly Sunny 24 100.7 -14 69 -18 -22
 
Map of Arctic - Eastern Arctic marine weather areas Baker Lake Airport Chesterfield Inlet Airport Coral Harbour Airport Gjoa Haven Airport Kugaaruk Airport Rankin Inlet Airport Shepherd Bay Airport Whale Cove Airport Arctic Bay Brevoort Island Qikiqtarjuaq Airport Cape Dorset Airport Cape Dyer Cape Hooper Clyde Airport Grise Fiord Airport Hall Beach Airport Igloolik Airport Iqaluit Airport Longstaff Bluff Pangnirtung Airport Pond Inlet Airport Repulse Bay Airport Resolute Airport Resolution Island Rowley Island Airport Taloyoak Airport Wager Bay Akulivik Airport Ivujivik Airport Puvirnituq Airport Kangiqsujuaq Airport Kangirsuk Airport Quaqtaq Airport Tasiujaq Airport Cape Kakkiviak Cape Kiglapait Nain Airport Saglek Cape Mercy Kimmirut Airport Aupaluk Airport Salluit Airport Kangiqsualujjuaq Airport Fort Ross
Legend: buoyBuoy land stationLand Station